Time;durP1;ratioP1;P1;durP2;ratioP2;P2;SDS_P1;SDS_P2;PMS_P1;PMS_P2;Temp;Humidity;BMP_temperature;BMP_pressure;BME280_temperature;BME280_humidity;BME280_pressure;Samples;Min_cycle;Max_cycle;Signal;HPM_P1;HPM_P2
2022/03/13 00:02:01;;;;;;;;;11.33;9.00;;;;;11.97;66.50;100805.44;5016545;28;45375;-82
2022/03/13 00:04:27;;;;;;;;;12.00;10.00;;;;;12.02;66.44;100829.28;5017492;28;45371;-82
2022/03/13 00:06:52;;;;;;;;;18.25;16.50;;;;;12.04;66.28;100828.41;5034532;28;45334;-85
2022/03/13 00:09:20;;;;;;;;;11.67;11.67;;;;;12.00;66.16;100818.69;5035434;28;52666;-81
2022/03/13 00:11:46;;;;;;;;;8.33;8.33;;;;;12.00;66.15;100812.50;5018363;28;45435;-82
2022/03/13 00:14:11;;;;;;;;;7.33;7.33;;;;;12.07;65.96;100823.13;5017612;28;45501;-82
2022/03/13 00:16:37;;;;;;;;;7.33;7.33;;;;;12.06;66.02;100813.41;5033996;28;45555;-83
2022/03/13 00:19:06;;;;;;;;;7.33;7.33;;;;;12.09;66.08;100816.94;5017713;28;48310;-81
2022/03/13 00:21:35;;;;;;;;;10.67;10.33;;;;;12.07;65.78;100824.88;5034024;28;45363;-83
2022/03/13 00:24:00;;;;;;;;;9.00;8.00;;;;;12.07;65.77;100817.81;5012375;28;45359;-84
2022/03/13 00:26:26;;;;;;;;;8.00;8.00;;;;;12.04;65.78;100811.66;5025702;28;46465;-83
2022/03/13 00:28:51;;;;;;;;;9.00;6.33;;;;;11.97;65.66;100780.72;5030403;28;51343;-80
2022/03/13 00:31:17;;;;;;;;;8.33;8.00;;;;;12.05;65.62;100809.00;5031928;28;45564;-82
2022/03/13 00:33:42;;;;;;;;;6.00;6.00;;;;;12.03;65.66;100808.09;5027436;28;45633;-82
2022/03/13 00:36:08;;;;;;;;;6.00;6.00;;;;;12.10;65.55;100809.03;5033875;28;45622;-84
2022/03/13 00:38:33;;;;;;;;;9.67;8.67;;;;;12.14;65.40;100809.91;5031760;28;46610;-82
2022/03/13 00:40:59;;;;;;;;;6.33;5.33;;;;;12.13;65.31;100802.84;5034824;28;47735;-81
2022/03/13 00:43:25;;;;;;;;;9.33;6.00;;;;;12.15;65.21;100809.06;5033032;28;45318;-77
2022/03/13 00:45:51;;;;;;;;;8.00;5.00;;;;;12.16;65.06;100811.72;5033260;28;45438;-81
2022/03/13 00:48:16;;;;;;;;;9.67;8.67;;;;;12.14;65.22;100802.84;5028888;28;47514;-84
2022/03/13 00:50:42;;;;;;;;;8.00;5.00;;;;;12.17;65.20;100797.59;5031653;28;46599;-80
2022/03/13 00:53:08;;;;;;;;;8.00;6.00;;;;;12.18;65.11;100795.81;5015436;28;45434;-77
2022/03/13 00:55:33;;;;;;;;;9.33;6.67;;;;;12.18;65.05;100795.81;5031963;28;45598;-80
2022/03/13 00:57:59;;;;;;;;;9.00;9.00;;;;;12.22;64.94;100802.91;5035081;28;46794;-81
2022/03/13 01:00:24;;;;;;;;;8.00;6.00;;;;;12.22;64.70;100795.84;5036337;28;45580;-81
2022/03/13 01:02:50;;;;;;;;;10.33;9.00;;;;;12.18;64.58;100786.13;5034753;28;45591;-80
2022/03/13 01:05:23;;;;;;;;;9.33;6.00;;;;;12.21;64.54;100796.72;5034754;28;45956;-80
2022/03/13 01:07:49;;;;;;;;;5.00;5.00;;;;;12.26;64.43;100802.91;5038278;28;46997;-80
2022/03/13 01:10:14;;;;;;;;;5.00;5.00;;;;;12.22;64.34;100781.72;5038272;28;45967;-82
2022/03/13 01:12:40;;;;;;;;;4.00;4.00;;;;;12.27;64.27;100786.16;5035906;28;45651;-81
2022/03/13 01:15:05;;;;;;;;;6.33;4.67;;;;;12.29;63.96;100789.69;5038213;28;45476;-80
2022/03/13 01:17:31;;;;;;;;;5.00;5.00;;;;;12.28;63.69;100782.63;5037868;28;46271;-81
2022/03/13 01:19:56;;;;;;;;;9.00;6.00;;;;;12.30;63.79;100786.19;5037724;28;45437;-81
2022/03/13 01:22:22;;;;;;;;;6.00;5.00;;;;;12.31;63.66;100781.75;5036224;28;45556;-80
2022/03/13 01:24:47;;;;;;;;;6.00;6.00;;;;;12.31;63.77;100779.13;5035154;28;45356;-81
2022/03/13 01:27:15;;;;;;;;;9.67;7.67;;;;;12.31;62.95;100776.47;5018626;28;47382;-79
2022/03/13 01:29:41;;;;;;;;;5.33;4.67;;;;;12.30;63.11;100777.31;5026365;28;45933;-82
2022/03/13 01:32:10;;;;;;;;;5.33;4.00;;;;;12.31;62.67;100760.59;5017089;28;45458;-80
2022/03/13 01:34:41;;;;;;;;;7.00;4.67;;;;;12.29;62.90;100771.16;5017982;28;45563;-80
2022/03/13 01:37:08;;;;;;;;;4.00;4.00;;;;;12.33;62.49;100758.81;5032549;28;46895;-80
2022/03/13 01:39:34;;;;;;;;;4.67;4.33;;;;;12.36;62.81;100764.13;5026977;28;45295;-80
2022/03/13 01:42:00;;;;;;;;;5.33;4.00;;;;;12.37;62.70;100759.72;5037983;28;45406;-80
2022/03/13 01:44:25;;;;;;;;;5.00;5.00;;;;;12.36;62.61;100764.13;5022812;28;45509;-81
2022/03/13 01:46:51;;;;;;;;;4.33;4.00;;;;;12.37;62.74;100760.59;5036046;28;45418;-82
2022/03/13 01:49:16;;;;;;;;;6.00;4.33;;;;;12.39;62.36;100760.59;5038091;28;45497;-81
2022/03/13 01:51:42;;;;;;;;;6.67;5.00;;;;;12.37;62.44;100752.66;5037996;28;45406;-82
2022/03/13 01:54:09;;;;;;;;;6.67;6.67;;;;;12.42;62.39;100761.50;5034199;28;45560;-81
2022/03/13 01:56:36;;;;;;;;;6.00;5.00;;;;;12.39;61.97;100750.88;5036688;28;48982;-79
2022/03/13 01:59:02;;;;;;;;;8.67;5.00;;;;;12.34;61.95;100731.44;5036261;28;45255;-80
2022/03/13 02:01:28;;;;;;;;;5.00;5.00;;;;;12.39;61.99;100744.69;5037836;28;45509;-80
2022/03/13 02:03:54;;;;;;;;;4.67;4.67;;;;;12.36;61.59;100740.31;5036458;28;45541;-80
2022/03/13 02:06:20;;;;;;;;;7.33;5.00;;;;;12.32;61.83;100742.03;5037645;28;46062;-80
2022/03/13 02:08:47;;;;;;;;;4.00;4.00;;;;;12.25;61.82;100731.41;5019808;28;46248;-80
2022/03/13 02:11:17;;;;;;;;;4.67;4.67;;;;;12.23;61.83;100726.13;5037557;28;45289;-80
2022/03/13 02:13:43;;;;;;;;;4.67;4.67;;;;;12.17;61.85;100723.47;5036853;28;45510;-82
2022/03/13 02:16:08;;;;;;;;;3.67;3.67;;;;;12.12;62.17;100725.22;5035593;28;46004;-79
2022/03/13 02:18:33;;;;;;;;;3.33;3.33;;;;;12.10;62.13;100723.47;5037745;28;45462;-79
2022/03/13 02:20:59;;;;;;;;;7.67;4.67;;;;;12.06;62.09;100726.09;5037565;28;45324;-81
2022/03/13 02:23:25;;;;;;;;;5.25;5.00;;;;;11.99;61.87;100721.66;5019182;28;45245;-80
2022/03/13 02:26:01;;;;;;;;;6.67;4.67;;;;;11.93;62.04;100713.72;5019786;28;47483;-80
2022/03/13 02:28:27;;;;;;;;;5.33;5.33;;;;;11.92;62.30;100719.84;5035476;28;45400;-80
2022/03/13 02:30:56;;;;;;;;;4.00;4.00;;;;;11.89;62.43;100716.34;5037613;28;45477;-79
2022/03/13 02:33:21;;;;;;;;;5.33;4.00;;;;;11.85;62.38;100714.53;5035742;28;45343;-82
2022/03/13 02:35:54;;;;;;;;;4.00;4.00;;;;;11.86;62.41;100705.72;5035763;28;46142;-80
2022/03/13 02:38:20;;;;;;;;;5.00;5.00;;;;;11.82;62.40;100710.09;5035344;28;45381;-79
2022/03/13 02:40:45;;;;;;;;;6.67;5.00;;;;;11.77;62.46;100694.22;5037805;28;45588;-80
2022/03/13 02:43:11;;;;;;;;;4.00;4.00;;;;;11.71;62.65;100694.16;5036119;28;45593;-80
2022/03/13 02:45:38;;;;;;;;;5.00;5.00;;;;;11.70;62.66;100696.81;5037164;28;47238;-81
2022/03/13 02:48:05;;;;;;;;;5.00;3.00;;;;;11.67;62.76;100695.06;5035760;28;45488;-80
2022/03/13 02:50:31;;;;;;;;;6.00;4.33;;;;;11.64;62.75;100687.09;5036643;28;45468;-80
2022/03/13 02:52:56;;;;;;;;;5.33;4.00;;;;;11.65;62.67;100695.91;5036879;28;45438;-81
2022/03/13 02:55:22;;;;;;;;;7.00;4.00;;;;;11.62;62.67;100688.84;5036893;28;47285;-80
2022/03/13 02:57:47;;;;;;;;;5.33;4.00;;;;;11.58;62.45;100686.19;5036647;28;45527;-80
2022/03/13 03:00:14;;;;;;;;;4.67;4.00;;;;;11.52;62.90;100674.69;5036637;28;45442;-80
2022/03/13 03:02:39;;;;;;;;;8.33;5.00;;;;;11.53;62.47;100676.47;5036493;28;45476;-80
2022/03/13 03:05:06;;;;;;;;;6.00;6.00;;;;;11.54;62.80;100683.50;5036510;28;53298;-82
2022/03/13 03:07:31;;;;;;;;;5.00;5.00;;;;;11.53;62.62;100687.03;5035729;28;45579;-80
2022/03/13 03:09:57;;;;;;;;;7.67;7.67;;;;;11.48;62.89;100672.03;5036757;28;45597;-81
2022/03/13 03:12:22;;;;;;;;;5.33;5.33;;;;;11.44;62.72;100667.59;5035879;28;45510;-82
2022/03/13 03:14:48;;;;;;;;;7.33;4.00;;;;;11.46;62.74;100674.69;5036064;28;46395;-80
2022/03/13 03:17:13;;;;;;;;;7.00;4.67;;;;;11.47;62.70;100671.16;5035166;28;45574;-81
2022/03/13 03:19:39;;;;;;;;;4.67;4.67;;;;;11.46;62.63;100677.31;5036268;28;45423;-80
2022/03/13 03:22:04;;;;;;;;;5.33;5.00;;;;;11.43;62.49;100665.84;5034848;28;45264;-80
2022/03/13 03:24:29;;;;;;;;;8.00;5.00;;;;;11.45;62.40;100672.91;5034337;28;50199;-81
2022/03/13 03:26:55;;;;;;;;;5.00;4.00;;;;;11.39;62.60;100661.41;5036174;28;45323;-80
2022/03/13 03:29:21;;;;;;;;;4.00;4.00;;;;;11.40;62.20;100666.72;5036127;28;45680;-83
2022/03/13 03:31:47;;;;;;;;;7.33;4.00;;;;;11.40;62.29;100661.44;5036582;28;45382;-83
2022/03/13 03:34:16;;;;;;;;;5.00;4.33;;;;;11.42;62.38;100664.06;5018374;28;48869;-80
2022/03/13 03:37:00;;;;;;;;;6.00;4.67;;;;;11.42;62.31;100662.31;5036181;28;45334;-83
2022/03/13 03:39:27;;;;;;;;;5.00;4.00;;;;;11.40;62.11;100657.88;5036152;28;45457;-80
2022/03/13 03:41:53;;;;;;;;;4.00;4.00;;;;;11.38;62.11;100660.53;5036342;28;45455;-80
2022/03/13 03:44:19;;;;;;;;;4.33;3.00;;;;;11.31;61.95;100652.56;5034588;28;47492;-79
2022/03/13 03:46:45;;;;;;;;;6.00;4.00;;;;;11.33;61.96;100656.97;5018029;28;45916;-81
2022/03/13 03:49:10;;;;;;;;;5.00;5.00;;;;;11.31;61.79;100658.75;5036391;28;45532;-80
2022/03/13 03:51:36;;;;;;;;;7.33;5.00;;;;;11.32;62.29;100652.56;5027281;28;45568;-80
2022/03/13 03:54:02;;;;;;;;;3.00;3.00;;;;;11.28;61.91;100649.00;5027758;28;47420;-80
2022/03/13 03:56:28;;;;;;;;;4.33;4.33;;;;;11.34;62.09;100657.84;5034444;28;45428;-81
2022/03/13 03:58:53;;;;;;;;;4.00;4.00;;;;;11.32;61.86;100654.34;5036162;28;45915;-80
2022/03/13 04:01:19;;;;;;;;;4.33;4.33;;;;;11.31;61.80;100663.16;5036111;28;45507;-81
2022/03/13 04:03:45;;;;;;;;;6.50;3.75;;;;;11.29;61.89;100660.47;5035298;28;46436;-80
2022/03/13 04:06:10;;;;;;;;;4.75;4.75;;;;;11.31;61.93;100658.75;5035762;28;45394;-80
2022/03/13 04:08:36;;;;;;;;;4.33;4.33;;;;;11.36;61.81;100666.69;5035719;28;45374;-81
2022/03/13 04:11:02;;;;;;;;;6.33;4.67;;;;;11.36;61.75;100657.00;5035994;28;45588;-80
2022/03/13 04:13:28;;;;;;;;;9.50;4.00;;;;;11.38;61.64;100652.59;5035763;28;46468;-81
2022/03/13 04:15:55;;;;;;;;;5.00;5.00;;;;;11.45;61.39;100670.28;5033275;28;45378;-80
2022/03/13 04:18:20;;;;;;;;;6.33;4.33;;;;;11.43;61.57;100657.91;5035191;28;45527;-80
2022/03/13 04:20:46;;;;;;;;;5.00;4.67;;;;;11.49;61.12;100673.78;5035642;28;45357;-81
2022/03/13 04:23:11;;;;;;;;;6.00;5.50;;;;;11.48;61.43;100672.91;5035581;28;45479;-80
2022/03/13 04:25:38;;;;;;;;;10.67;6.33;;;;;11.48;61.02;100672.91;5034114;28;45795;-80
2022/03/13 04:28:04;;;;;;;;;8.00;5.33;;;;;11.48;61.30;100672.03;5026842;28;45433;-80
2022/03/13 04:30:31;;;;;;;;;6.33;6.33;;;;;11.49;61.15;100674.69;5016777;28;45475;-81
2022/03/13 04:33:00;;;;;;;;;10.75;8.00;;;;;11.46;61.03;100672.03;5037469;28;46391;-80
2022/03/13 04:35:26;;;;;;;;;6.25;6.00;;;;;11.51;60.87;100678.22;5039013;28;45350;-79
2022/03/13 04:37:52;;;;;;;;;6.33;5.00;;;;;11.45;60.81;100665.00;5039003;28;45388;-79
2022/03/13 04:40:17;;;;;;;;;4.00;4.00;;;;;11.47;60.98;100670.28;5039477;28;45559;-80
2022/03/13 04:42:43;;;;;;;;;8.00;5.00;;;;;11.45;60.67;100672.00;5037639;28;47012;-81
2022/03/13 04:45:08;;;;;;;;;5.67;4.00;;;;;11.46;61.02;100669.41;5038505;28;45414;-82
2022/03/13 04:47:34;;;;;;;;;4.67;4.00;;;;;11.45;60.74;100667.63;5038688;28;45444;-82
2022/03/13 04:49:59;;;;;;;;;7.00;4.00;;;;;11.50;60.50;100673.81;5037629;28;45532;-81
2022/03/13 04:52:25;;;;;;;;;4.00;4.00;;;;;11.51;60.61;100675.59;5038504;28;46542;-80
2022/03/13 04:54:51;;;;;;;;;4.67;3.00;;;;;11.47;60.64;100667.63;5021060;28;45656;-81
2022/03/13 04:57:17;;;;;;;;;3.33;3.33;;;;;11.42;60.53;100649.09;5038549;28;45568;-81
2022/03/13 04:59:42;;;;;;;;;6.00;6.00;;;;;11.54;60.22;100670.28;5037299;28;45647;-79
2022/03/13 05:02:08;;;;;;;;;4.00;4.00;;;;;11.54;60.08;100669.41;5038136;28;52835;-82
2022/03/13 05:04:34;;;;;;;;;4.00;4.00;;;;;11.54;60.26;100670.28;5037177;28;45287;-81
2022/03/13 05:06:59;;;;;;;;;4.67;4.67;;;;;11.53;60.00;100660.59;5038271;28;45188;-80
2022/03/13 05:09:25;;;;;;;;;6.33;4.00;;;;;11.57;60.09;100652.69;5037888;28;45544;-80
2022/03/13 05:11:50;;;;;;;;;4.00;4.00;;;;;11.55;60.06;100656.19;5037436;28;45269;-80
2022/03/13 05:14:16;;;;;;;;;3.00;3.00;;;;;11.58;60.11;100662.38;5038467;28;45323;-80
2022/03/13 05:16:41;;;;;;;;;3.00;3.00;;;;;11.55;60.01;100652.66;5037913;28;45456;-80
2022/03/13 05:19:07;;;;;;;;;6.00;4.00;;;;;11.54;59.90;100649.13;5038308;28;45577;-83
2022/03/13 05:21:34;;;;;;;;;3.33;3.00;;;;;11.57;59.38;100650.94;5037992;28;46190;-80
2022/03/13 05:24:00;;;;;;;;;4.00;3.00;;;;;11.50;59.81;100644.75;5038418;28;45390;-80
2022/03/13 05:26:25;;;;;;;;;5.00;3.00;;;;;11.55;59.80;100652.66;5037177;28;45311;-82
2022/03/13 05:28:50;;;;;;;;;4.33;4.00;;;;;11.54;59.78;100650.91;5037883;28;45241;-80
2022/03/13 05:31:16;;;;;;;;;3.33;3.00;;;;;11.49;60.16;100650.00;5038122;28;46533;-80
2022/03/13 05:33:41;;;;;;;;;2.00;2.00;;;;;11.55;59.59;100666.75;5037644;28;45264;-80
2022/03/13 05:36:07;;;;;;;;;3.33;3.33;;;;;11.55;59.22;100668.53;5038203;28;45742;-80
2022/03/13 05:38:34;;;;;;;;;3.67;3.67;;;;;11.52;59.36;100666.78;5036982;28;45581;-80
2022/03/13 05:41:00;;;;;;;;;5.67;4.00;;;;;11.53;59.29;100660.59;5038036;28;46484;-80
2022/03/13 05:43:26;;;;;;;;;4.00;4.00;;;;;11.54;59.19;100658.84;5036405;28;45343;-81
2022/03/13 05:45:51;;;;;;;;;3.00;3.00;;;;;11.53;59.25;100655.31;5037618;28;45581;-81
2022/03/13 05:48:18;;;;;;;;;4.67;3.33;;;;;11.48;59.29;100650.88;5037304;28;45391;-81
2022/03/13 05:50:44;;;;;;;;;10.67;4.00;;;;;11.51;58.98;100665.00;5037098;28;47589;-81
2022/03/13 05:53:10;;;;;;;;;5.00;3.33;;;;;11.54;59.04;100662.38;5036446;28;45578;-81
2022/03/13 05:55:35;;;;;;;;;3.33;3.33;;;;;11.53;58.91;100670.28;5037843;28;45472;-81
2022/03/13 05:58:01;;;;;;;;;3.67;2.00;;;;;11.54;58.95;100662.38;5037497;28;45652;-81
2022/03/13 06:00:27;;;;;;;;;4.33;2.33;;;;;11.55;58.81;100668.53;5019369;28;48078;-83
2022/03/13 06:02:52;;;;;;;;;4.33;3.33;;;;;11.48;58.89;100656.16;5036222;28;45931;-81
2022/03/13 06:05:18;;;;;;;;;5.00;2.67;;;;;11.53;58.80;100659.72;5036405;28;45478;-80
2022/03/13 06:07:44;;;;;;;;;2.00;2.00;;;;;11.54;58.75;100669.41;5036791;28;45672;-81
2022/03/13 06:10:10;;;;;;;;;2.67;2.67;;;;;11.48;58.75;100664.97;5036479;28;46644;-81
2022/03/13 06:12:35;;;;;;;;;2.00;2.00;;;;;11.53;58.70;100665.88;5019856;28;45584;-80
2022/03/13 06:15:02;;;;;;;;;3.00;3.00;;;;;11.54;58.50;100672.94;5035893;28;45450;-80
2022/03/13 06:17:27;;;;;;;;;2.33;2.00;;;;;11.49;58.26;100664.09;5019673;28;45386;-80
2022/03/13 06:19:53;;;;;;;;;2.00;2.00;;;;;11.52;58.75;100671.19;5037457;28;49697;-80
2022/03/13 06:22:19;;;;;;;;;3.67;3.67;;;;;11.54;58.74;100675.59;5019271;28;45593;-79
2022/03/13 06:24:45;;;;;;;;;3.00;3.00;;;;;11.54;58.56;100683.50;5037773;28;45301;-80
2022/03/13 06:27:10;;;;;;;;;4.67;3.67;;;;;11.49;58.49;100674.69;5037691;28;45427;-82
2022/03/13 06:29:39;;;;;;;;;2.67;2.67;;;;;11.55;58.52;100685.28;5036310;28;47674;-82
2022/03/13 06:32:05;;;;;;;;;5.00;4.00;;;;;11.51;58.79;100678.22;5036674;28;45410;-81
2022/03/13 06:34:30;;;;;;;;;2.00;1.67;;;;;11.59;58.25;100686.19;5037110;28;45204;-80
2022/03/13 06:36:56;;;;;;;;;4.00;2.67;;;;;11.59;58.21;100693.22;5037366;28;45366;-80
2022/03/13 06:39:22;;;;;;;;;5.00;3.00;;;;;11.58;58.25;100691.47;5036836;28;50859;-80
2022/03/13 06:41:48;;;;;;;;;2.00;2.00;;;;;11.58;58.50;100689.72;5036312;28;45486;-80
2022/03/13 06:44:13;;;;;;;;;4.00;3.00;;;;;11.62;58.08;100688.84;5037561;28;45554;-79
2022/03/13 06:46:38;;;;;;;;;3.00;3.00;;;;;11.55;57.89;100680.00;5035227;28;45469;-80
2022/03/13 06:49:05;;;;;;;;;3.00;1.67;;;;;11.64;57.94;100700.31;5034807;28;47433;-83
2022/03/13 06:51:31;;;;;;;;;3.00;2.00;;;;;11.63;57.77;100693.25;5035538;28;45359;-80
2022/03/13 06:53:57;;;;;;;;;2.00;2.00;;;;;11.65;57.45;100686.19;5035227;28;45346;-80
2022/03/13 06:56:22;;;;;;;;;2.00;2.00;;;;;11.67;57.95;100692.41;5035531;28;45488;-80
2022/03/13 06:58:47;;;;;;;;;1.67;1.67;;;;;11.66;57.70;100681.78;5034079;28;48135;-81
2022/03/13 07:01:13;;;;;;;;;2.00;2.00;;;;;11.70;57.50;100687.09;5035813;28;45796;-81
2022/03/13 07:03:39;;;;;;;;;2.00;2.00;;;;;11.77;57.43;100695.94;5036910;28;45480;-81
2022/03/13 07:06:05;;;;;;;;;1.33;1.33;;;;;11.78;57.53;100690.69;5037060;28;45399;-80
2022/03/13 07:08:32;;;;;;;;;1.67;1.67;;;;;11.81;57.44;100689.78;5036217;28;45681;-81
2022/03/13 07:10:59;;;;;;;;;1.33;1.33;;;;;11.84;57.37;100697.78;5034611;28;45537;-80
2022/03/13 07:13:25;;;;;;;;;2.00;2.00;;;;;11.83;57.18;100674.00;5036243;28;45516;-80
2022/03/13 07:15:52;;;;;;;;;3.33;2.00;;;;;11.92;57.11;100692.50;5035296;28;47186;-82
2022/03/13 07:18:18;;;;;;;;;2.00;2.00;;;;;11.93;57.24;100691.63;5036344;28;46850;-81
2022/03/13 07:20:43;;;;;;;;;3.00;2.00;;;;;11.93;56.85;100694.28;5035562;28;45531;-81
2022/03/13 07:23:09;;;;;;;;;3.00;1.33;;;;;11.92;56.99;100690.75;5035285;28;46968;-80
2022/03/13 07:25:34;;;;;;;;;2.00;2.00;;;;;11.92;56.94;100685.44;5036315;28;45477;-81
2022/03/13 07:27:59;;;;;;;;;2.00;2.00;;;;;11.92;56.34;100682.81;5034840;28;46370;-80
2022/03/13 07:30:25;;;;;;;;;3.00;1.00;;;;;11.87;56.49;100665.16;5034442;28;45596;-80
2022/03/13 07:32:50;;;;;;;;;2.00;2.00;;;;;11.90;56.68;100678.41;5035917;28;45331;-82
2022/03/13 07:35:16;;;;;;;;;2.00;2.00;;;;;11.85;56.39;100677.50;5035115;28;45530;-80
2022/03/13 07:37:41;;;;;;;;;3.00;2.00;;;;;11.86;56.27;100688.09;5034754;28;46399;-80
2022/03/13 07:40:07;;;;;;;;;1.00;1.00;;;;;11.85;56.16;100686.31;5036203;28;45501;-82
2022/03/13 07:42:33;;;;;;;;;1.67;1.33;;;;;11.82;56.42;100696.88;5035039;28;45564;-81
2022/03/13 07:44:58;;;;;;;;;1.00;1.00;;;;;11.80;56.23;100696.84;5034810;28;45659;-82
2022/03/13 07:47:25;;;;;;;;;3.00;2.00;;;;;11.74;56.02;100691.53;5035828;28;45928;-80
2022/03/13 07:49:52;;;;;;;;;2.33;0.67;;;;;11.78;56.28;100703.03;5035987;28;45481;-80
2022/03/13 07:54:47;;;;;;;;;2.67;1.00;;;;;11.75;55.94;100692.44;5025050;28;46984;-81
2022/03/13 07:57:12;;;;;;;;;2.00;2.00;;;;;11.84;56.11;100703.09;5018212;28;54451;-80
2022/03/13 07:59:38;;;;;;;;;2.00;2.00;;;;;11.85;55.65;100704.84;5036418;28;45247;-80
2022/03/13 08:02:04;;;;;;;;;2.67;2.00;;;;;11.92;56.08;100700.44;5019041;28;45469;-80
2022/03/13 08:04:29;;;;;;;;;1.00;1.00;;;;;11.91;55.88;100699.56;5036039;28;45332;-82
2022/03/13 08:06:55;;;;;;;;;3.00;1.00;;;;;11.97;55.95;100699.59;5016483;28;46713;-80
2022/03/13 08:09:20;;;;;;;;;1.00;1.00;;;;;12.01;56.15;100706.66;5034655;28;45502;-81
2022/03/13 08:11:46;;;;;;;;;3.67;2.67;;;;;11.99;55.42;100691.69;5035171;28;45500;-79
2022/03/13 08:14:12;;;;;;;;;1.33;1.33;;;;;12.05;54.77;100684.63;5018214;28;45462;-78
2022/03/13 08:16:38;;;;;;;;;2.00;2.00;;;;;12.09;55.60;100696.13;5034741;28;46288;-79
2022/03/13 08:19:05;;;;;;;;;2.00;2.00;;;;;12.12;55.24;100680.22;5029667;28;45427;-81
2022/03/13 08:21:30;;;;;;;;;2.00;2.00;;;;;12.10;54.74;100676.69;5030691;28;45596;-79
2022/03/13 08:23:56;;;;;;;;;2.00;2.00;;;;;12.20;55.07;100689.06;5037358;28;45613;-79
2022/03/13 08:26:21;;;;;;;;;1.00;1.00;;;;;12.27;54.34;100695.25;5017699;28;46676;-79
2022/03/13 08:28:47;;;;;;;;;1.67;1.67;;;;;12.23;54.06;100674.94;5017613;28;45350;-79
2022/03/13 08:31:13;;;;;;;;;3.00;2.00;;;;;12.33;54.38;100685.56;5016630;28;45435;-78
2022/03/13 08:33:38;;;;;;;;;2.00;2.00;;;;;12.43;54.48;100689.09;5034620;28;45699;-78
2022/03/13 08:36:04;;;;;;;;;2.67;2.67;;;;;12.53;54.70;100685.59;5014213;28;45706;-79
2022/03/13 08:38:30;;;;;;;;;3.00;3.00;;;;;12.64;54.73;100687.34;5033006;28;45375;-79
2022/03/13 08:40:55;;;;;;;;;6.00;1.33;;;;;12.69;54.09;100675.88;5031207;28;45791;-79
2022/03/13 08:43:21;;;;;;;;;2.00;2.00;;;;;12.73;53.84;100676.75;5016797;28;45550;-80
2022/03/13 08:45:46;;;;;;;;;3.33;1.00;;;;;12.71;52.65;100676.75;5035519;28;46402;-79
2022/03/13 08:48:13;;;;;;;;;2.00;2.00;;;;;12.78;53.84;100667.94;5017479;28;45327;-80
2022/03/13 08:50:38;;;;;;;;;3.00;2.00;;;;;12.82;54.34;100659.06;5029254;28;45376;-79
2022/03/13 08:53:04;;;;;;;;;2.00;2.00;;;;;12.95;53.98;100673.22;5032979;28;45533;-79
2022/03/13 08:55:29;;;;;;;;;2.33;1.00;;;;;13.06;54.00;100681.16;5020573;28;47817;-80
2022/03/13 08:57:54;;;;;;;;;1.00;1.00;;;;;13.20;52.91;100686.41;5035144;28;45352;-81
2022/03/13 09:00:21;;;;;;;;;1.00;1.00;;;;;13.31;52.19;100672.25;5014496;28;45592;-83
2022/03/13 09:02:47;;;;;;;;;2.00;2.00;;;;;13.41;52.25;100666.94;5030443;28;46049;-82
2022/03/13 09:05:13;;;;;;;;;1.67;1.67;;;;;13.52;52.88;100678.41;5014951;28;46579;-79
2022/03/13 09:07:38;;;;;;;;;2.67;2.00;;;;;13.59;52.35;100675.72;4999871;28;46285;-79
2022/03/13 09:10:07;;;;;;;;;3.00;2.00;;;;;13.68;52.01;100684.53;5016535;28;45600;-79
2022/03/13 09:12:32;;;;;;;;;3.00;3.00;;;;;13.71;50.92;100682.75;5016098;28;45624;-77
2022/03/13 09:14:58;;;;;;;;;2.00;2.00;;;;;13.81;51.56;100686.25;4999531;28;46897;-77
2022/03/13 09:17:24;;;;;;;;;2.67;2.00;;;;;13.84;51.39;100686.22;5015898;28;45448;-80
2022/03/13 09:19:49;;;;;;;;;1.67;1.67;;;;;13.86;50.48;100695.06;5037536;28;46177;-79
2022/03/13 09:22:17;;;;;;;;;1.67;1.33;;;;;13.93;51.75;100690.63;5042126;28;45490;-81
2022/03/13 09:24:44;;;;;;;;;1.00;1.00;;;;;13.99;51.17;100678.19;5015198;28;45870;-77
2022/03/13 09:27:09;;;;;;;;;2.00;1.00;;;;;14.14;50.14;100694.03;5020738;28;45546;-83
2022/03/13 09:29:35;;;;;;;;;2.00;2.00;;;;;14.20;50.81;100686.91;5036999;28;45515;-80
2022/03/13 09:32:01;;;;;;;;;2.00;2.00;;;;;14.28;51.03;100693.97;5015584;28;45574;-84
2022/03/13 09:34:26;;;;;;;;;2.00;2.00;;;;;14.34;51.44;100698.34;5038087;28;45695;-81
2022/03/13 09:36:52;;;;;;;;;1.00;1.00;;;;;14.38;49.83;100697.41;5020471;28;45329;-83
2022/03/13 09:39:17;;;;;;;;;1.00;1.00;;;;;14.43;49.87;100690.28;5020638;28;45317;-82
2022/03/13 09:41:43;;;;;;;;;1.00;1.00;;;;;14.44;48.82;100683.25;5020292;28;45330;-83
2022/03/13 09:44:08;;;;;;;;;1.00;0.00;;;;;14.45;49.40;100688.53;5020121;28;45574;-82
2022/03/13 09:46:38;;;;;;;;;2.00;2.00;;;;;14.46;49.98;100700.91;5003483;28;46481;-81
2022/03/13 09:49:03;;;;;;;;;1.33;1.33;;;;;14.41;48.98;100700.06;5031767;28;45256;-82
2022/03/13 09:51:28;;;;;;;;;1.67;1.67;;;;;14.29;48.55;100694.84;5030915;28;45403;-81
2022/03/13 09:53:54;;;;;;;;;1.00;1.00;;;;;14.21;49.67;100694.00;5032335;28;47282;-82
2022/03/13 09:56:19;;;;;;;;;1.33;1.33;;;;;14.13;50.16;100694.94;5037776;28;47680;-82
2022/03/13 09:58:45;;;;;;;;;1.33;1.33;;;;;14.06;50.15;100687.00;5020212;28;45460;-82
2022/03/13 10:01:11;;;;;;;;;3.00;1.00;;;;;14.04;50.74;100697.63;5018955;28;45697;-83
2022/03/13 10:03:36;;;;;;;;;2.00;1.00;;;;;14.03;50.74;100710.91;5002056;28;45564;-84
2022/03/13 10:06:01;;;;;;;;;2.33;2.33;;;;;14.00;50.98;100700.31;5037526;28;45497;-82
2022/03/13 10:08:29;;;;;;;;;1.33;1.00;;;;;13.98;50.93;100692.34;5018977;28;45371;-82
2022/03/13 10:10:54;;;;;;;;;2.00;1.00;;;;;14.07;50.84;100694.97;4982884;28;45680;-82
2022/03/13 10:13:38;;;;;;;;;2.00;2.00;;;;;14.20;51.47;100702.84;5019449;28;45409;-83
2022/03/13 10:16:08;;;;;;;;;1.00;1.00;;;;;14.22;50.25;100706.38;5034318;28;45301;-82
2022/03/13 10:18:34;;;;;;;;;2.00;2.00;;;;;14.28;50.85;100701.06;5020161;28;45489;-82
2022/03/13 10:21:08;;;;;;;;;2.00;2.00;;;;;14.32;50.83;100694.81;4999821;28;45501;-81
2022/03/13 10:23:33;;;;;;;;;1.33;1.33;;;;;14.40;50.91;100696.53;5013079;28;46562;-82
2022/03/13 10:25:59;;;;;;;;;2.67;2.67;;;;;14.42;50.63;100702.69;5037507;28;45233;-82
2022/03/13 10:28:31;;;;;;;;;2.00;2.00;;;;;14.48;51.39;100699.16;5019394;28;45299;-81
2022/03/13 10:31:00;;;;;;;;;2.67;2.00;;;;;14.49;51.49;100681.44;5032554;28;45275;-81
2022/03/13 10:33:45;;;;;;;;;2.00;2.00;;;;;14.66;51.63;100682.19;5037148;28;47455;-82
2022/03/13 10:36:14;;;;;;;;;1.67;1.67;;;;;14.85;51.10;100680.25;5025762;28;45601;-85
2022/03/13 10:38:40;;;;;;;;;2.33;2.00;;;;;14.95;51.10;100671.31;5003330;28;45415;-82
2022/03/13 10:41:09;;;;;;;;;1.33;1.00;;;;;15.06;50.79;100677.41;5019733;28;45519;-84
2022/03/13 10:43:55;;;;;;;;;3.33;1.00;;;;;15.07;51.16;100667.63;5036706;28;47527;-84
2022/03/13 10:46:28;;;;;;;;;1.00;1.00;;;;;15.10;50.43;100673.81;5020283;28;46177;-81
2022/03/13 10:48:54;;;;;;;;;1.33;1.33;;;;;14.99;50.53;100654.44;5003514;28;45520;-81
2022/03/13 10:51:45;;;;;;;;;3.67;2.00;;;;;15.01;50.41;100665.03;4999937;28;45556;-83
2022/03/13 10:54:31;;;;;;;;;4.67;1.33;;;;;15.01;50.44;100663.25;4999893;28;46472;-84
2022/03/13 10:57:12;;;;;;;;;1.33;1.33;;;;;15.01;50.43;100649.09;4998914;28;45191;-82
2022/03/13 10:59:40;;;;;;;;;1.00;1.00;;;;;14.97;50.38;100656.25;5018639;28;45503;-82
2022/03/13 11:02:16;;;;;;;;;2.00;2.00;;;;;14.90;49.79;100654.50;5019748;28;45283;-83
2022/03/13 11:04:51;;;;;;;;;1.67;1.67;;;;;14.88;50.61;100653.66;5036603;28;47173;-81
2022/03/13 11:07:17;;;;;;;;;2.00;2.00;;;;;14.98;50.22;100659.78;5012787;28;45488;-83
2022/03/13 11:09:42;;;;;;;;;1.00;1.00;;;;;14.97;50.31;100657.97;5017346;28;45305;-82
2022/03/13 11:12:10;;;;;;;;;1.67;1.67;;;;;14.96;50.08;100651.78;5013992;28;45653;-81
2022/03/13 11:14:36;;;;;;;;;2.00;2.00;;;;;15.00;50.00;100663.28;5018766;28;48418;-84
2022/03/13 11:17:02;;;;;;;;;2.00;2.00;;;;;15.00;49.63;100663.28;5018367;28;45324;-81
2022/03/13 11:19:36;;;;;;;;;3.33;3.00;;;;;14.91;50.13;100657.19;5017638;28;45335;-82
2022/03/13 11:22:02;;;;;;;;;2.00;2.00;;;;;14.94;49.99;100666.88;5032623;28;45435;-82
2022/03/13 11:24:28;;;;;;;;;3.00;3.00;;;;;14.85;50.87;100656.34;5011938;28;46481;-87